BAW18B TXKF-EGLL
Flight info
| Callsign | BAW18B |
|---|---|
| Flight time | N/A |
| Altitude | 39000 |
| Route | BORNN1 BALOO DCT 35N060W 37N050W 40N044W 42N040W 45N030W 46N020W 47N015W DCT TAMEL DCT EVBAK DCT GAPLI/N0470F390 DCT SIDDI DCT DAWLY DCT ELRIP DCT OTMET |
| Aircraft | B772/H-SDE2E3FGHIJ5LORVWXY/LB1D1 |
Departure
| Time | 2026-04-25 23:01 |
|---|---|
| Airport | L.F. Wade International Airport (TXKF) |
Arrival
| Time | N/A |
|---|---|
| Airport | London Heathrow Airport (EGLL) |
| Time | Latitude | Longitude | Altitude | Speed | Heading |
|---|---|---|---|---|---|
| 2026-04-25 22:25 | 32.36220 | -64.70281 | 28 ft | 0 kts | 247° |
| 2026-04-25 22:50 | 32.36229 | -64.70257 | 26 ft | 4 kts | 239° |
| 2026-04-25 22:50 | 32.36245 | -64.70231 | 25 ft | 4 kts | 224° |
| 2026-04-25 22:51 | 32.36266 | -64.70212 | 27 ft | 4 kts | 201° |
| 2026-04-25 22:51 | 32.36292 | -64.70206 | 27 ft | 4 kts | 172° |
| 2026-04-25 22:51 | 32.36306 | -64.70210 | 26 ft | 0 kts | 157° |
| 2026-04-25 22:56 | 32.36299 | -64.70207 | 27 ft | 5 kts | 157° |
| 2026-04-25 22:56 | 32.36275 | -64.70170 | 26 ft | 6 kts | 104° |
| 2026-04-25 22:56 | 32.36280 | -64.70119 | 29 ft | 6 kts | 73° |
| 2026-04-25 22:57 | 32.36284 | -64.70106 | 29 ft | 6 kts | 69° |
| 2026-04-25 22:57 | 32.36298 | -64.70064 | 29 ft | 7 kts | 68° |
| 2026-04-25 22:57 | 32.36317 | -64.70010 | 29 ft | 8 kts | 68° |
| 2026-04-25 22:57 | 32.36338 | -64.69948 | 29 ft | 9 kts | 67° |
| 2026-04-25 22:58 | 32.36363 | -64.69880 | 29 ft | 9 kts | 66° |
| 2026-04-25 22:58 | 32.36389 | -64.69810 | 29 ft | 9 kts | 67° |
| 2026-04-25 22:58 | 32.36414 | -64.69740 | 29 ft | 9 kts | 67° |
| 2026-04-25 22:58 | 32.36438 | -64.69668 | 29 ft | 9 kts | 68° |
| 2026-04-25 22:59 | 32.36455 | -64.69622 | 29 ft | 9 kts | 68° |
| 2026-04-25 22:59 | 32.36479 | -64.69551 | 30 ft | 9 kts | 67° |
| 2026-04-25 22:59 | 32.36505 | -64.69480 | 30 ft | 9 kts | 66° |
| 2026-04-25 22:59 | 32.36545 | -64.69422 | 30 ft | 9 kts | 28° |
| 2026-04-25 23:00 | 32.36607 | -64.69400 | 20 ft | 9 kts | 15° |
| 2026-04-25 23:00 | 32.36656 | -64.69369 | 31 ft | 7 kts | 68° |
| 2026-04-25 23:00 | 32.36652 | -64.69313 | 31 ft | 6 kts | 102° |
| 2026-04-25 23:00 | 32.36629 | -64.69197 | 31 ft | 31 kts | 103° |
| 2026-04-25 23:01 | 32.36542 | -64.68664 | 33 ft | 104 kts | 101° |
| 2026-04-25 23:01 | 32.36351 | -64.67545 | 32 ft | 171 kts | 101° |
| 2026-04-25 23:01 | 32.36079 | -64.66048 | 482 ft | 192 kts | 99° |
| 2026-04-25 23:01 | 32.35810 | -64.64465 | 1357 ft | 198 kts | 99° |
| 2026-04-25 23:02 | 32.35519 | -64.62877 | 2285 ft | 198 kts | 99° |
| 2026-04-25 23:02 | 32.35230 | -64.61212 | 2753 ft | 217 kts | 99° |
| 2026-04-25 23:02 | 32.34929 | -64.59392 | 3130 ft | 233 kts | 99° |
| 2026-04-25 23:02 | 32.34710 | -64.57445 | 3524 ft | 247 kts | 87° |
| 2026-04-25 23:03 | 32.35012 | -64.55430 | 4090 ft | 253 kts | 65° |
| 2026-04-25 23:03 | 32.35970 | -64.53683 | 4682 ft | 257 kts | 40° |
| 2026-04-25 23:03 | 32.37351 | -64.52365 | 5339 ft | 256 kts | 33° |
| 2026-04-25 23:03 | 32.38772 | -64.51072 | 5947 ft | 262 kts | 34° |
| 2026-04-25 23:04 | 32.40188 | -64.49694 | 6456 ft | 273 kts | 36° |
| 2026-04-25 23:04 | 32.41643 | -64.48197 | 7011 ft | 281 kts | 37° |
| 2026-04-25 23:04 | 32.43109 | -64.46636 | 7657 ft | 285 kts | 38° |
| 2026-04-25 23:04 | 32.44571 | -64.45040 | 8358 ft | 287 kts | 38° |
| 2026-04-25 23:05 | 32.46030 | -64.43422 | 9047 ft | 288 kts | 38° |
| 2026-04-25 23:05 | 32.47491 | -64.41784 | 9720 ft | 290 kts | 39° |
| 2026-04-25 23:05 | 32.48962 | -64.40123 | 10263 ft | 296 kts | 39° |
| 2026-04-25 23:05 | 32.50497 | -64.38387 | 10439 ft | 316 kts | 39° |
| 2026-04-25 23:06 | 32.52136 | -64.36529 | 10599 ft | 336 kts | 39° |
| 2026-04-25 23:06 | 32.53849 | -64.34576 | 11078 ft | 347 kts | 39° |
| 2026-04-25 23:06 | 32.55604 | -64.32566 | 11730 ft | 354 kts | 40° |
| 2026-04-25 23:06 | 32.57386 | -64.30520 | 12560 ft | 359 kts | 40° |
| 2026-04-25 23:07 | 32.59199 | -64.28436 | 13384 ft | 365 kts | 40° |
| 2026-04-25 23:07 | 32.61037 | -64.26324 | 14204 ft | 370 kts | 40° |
| 2026-04-25 23:07 | 32.62894 | -64.24188 | 15009 ft | 373 kts | 40° |
| 2026-04-25 23:07 | 32.64765 | -64.22035 | 15809 ft | 377 kts | 40° |